createdAt,value
2022-12-16T00:02:05.186Z,17.93
2022-12-16T00:05:09.723Z,16.77
2022-12-16T00:08:15.013Z,16.93
2022-12-16T00:11:18.652Z,18.03
2022-12-16T00:14:22.210Z,15.87
2022-12-16T00:17:25.794Z,18.20
2022-12-16T00:20:29.415Z,17.47
2022-12-16T00:23:35.929Z,16.67
2022-12-16T00:26:39.865Z,16.67
2022-12-16T00:29:43.406Z,16.80
2022-12-16T00:32:47.007Z,17.63
2022-12-16T00:35:50.591Z,16.13
2022-12-16T00:38:56.785Z,15.70
2022-12-16T00:42:00.324Z,16.30
2022-12-16T00:45:04.877Z,17.20
2022-12-16T00:48:09.213Z,17.37
2022-12-16T00:51:12.761Z,17.80
2022-12-16T00:54:17.772Z,17.50
2022-12-16T00:57:21.419Z,17.30
2022-12-16T01:00:25.350Z,16.27
2022-12-16T01:03:29.434Z,16.83
2022-12-16T01:06:33.119Z,16.53
2022-12-16T01:09:38.430Z,17.67
2022-12-16T01:12:42.002Z,16.03
2022-12-16T01:15:45.661Z,16.40
2022-12-16T01:18:49.395Z,18.30
2022-12-16T01:21:53.037Z,18.33
2022-12-16T01:24:58.643Z,17.93
2022-12-16T01:28:02.238Z,17.23
2022-12-16T01:31:06.230Z,17.67
2022-12-16T01:34:11.059Z,18.13
2022-12-16T01:37:14.918Z,17.33
2022-12-16T01:40:23.758Z,17.10
2022-12-16T01:43:31.322Z,16.87
2022-12-16T01:46:38.636Z,19.80
2022-12-16T01:49:49.004Z,18.47
2022-12-16T01:53:00.488Z,18.00
2022-12-16T01:56:05.896Z,16.83
2022-12-16T01:59:10.309Z,18.67
2022-12-16T02:02:16.087Z,17.37
2022-12-16T02:05:22.966Z,19.07
2022-12-16T02:08:26.554Z,19.03
2022-12-16T02:12:15.304Z,17.20
2022-12-16T02:15:40.775Z,17.70
2022-12-16T02:18:56.586Z,17.83
2022-12-16T02:22:17.567Z,17.97
2022-12-16T02:26:08.177Z,16.80
2022-12-16T02:30:08.677Z,18.50
2022-12-16T02:33:31.793Z,17.97
2022-12-16T02:36:57.986Z,18.10
2022-12-16T02:40:04.701Z,18.33
2022-12-16T02:43:19.167Z,18.83
2022-12-16T02:46:28.463Z,18.33
2022-12-16T02:49:50.043Z,18.17
2022-12-16T02:52:57.162Z,19.50
2022-12-16T02:56:19.568Z,18.43
2022-12-16T02:59:35.943Z,19.17
2022-12-16T03:02:50.895Z,18.20
2022-12-16T03:06:00.135Z,17.97
2022-12-16T03:09:10.233Z,18.20
2022-12-16T03:12:21.271Z,19.57
2022-12-16T03:15:30.073Z,16.80
2022-12-16T03:18:35.987Z,18.10
2022-12-16T03:21:50.442Z,18.63
2022-12-16T03:24:54.704Z,18.77
2022-12-16T03:28:08.105Z,19.23
2022-12-16T03:31:31.260Z,18.40
2022-12-16T03:34:42.207Z,17.43
2022-12-16T03:37:50.969Z,17.23
2022-12-16T03:40:57.848Z,17.97
2022-12-16T03:44:01.841Z,16.53
2022-12-16T03:47:06.608Z,16.57
2022-12-16T03:50:11.171Z,17.20
2022-12-16T03:53:16.140Z,17.83
2022-12-16T03:56:19.793Z,17.70
2022-12-16T03:59:23.706Z,16.73
2022-12-16T04:02:27.458Z,17.70
2022-12-16T04:05:31.169Z,16.67
2022-12-16T04:08:36.160Z,16.23
2022-12-16T04:11:57.175Z,17.43
2022-12-16T04:15:17.967Z,16.03
2022-12-16T04:18:38.942Z,16.63
2022-12-16T04:22:00.081Z,16.57
2022-12-16T04:25:10.289Z,17.47
2022-12-16T04:28:13.854Z,17.00
2022-12-16T04:31:17.602Z,17.47
2022-12-16T04:34:27.836Z,17.93
2022-12-16T04:38:03.466Z,16.97
2022-12-16T04:41:25.875Z,17.77
2022-12-16T04:44:47.301Z,18.03
2022-12-16T04:48:08.450Z,18.00
2022-12-16T04:51:28.721Z,17.83
2022-12-16T04:54:49.758Z,19.70
2022-12-16T04:58:14.213Z,17.13
2022-12-16T05:01:35.314Z,18.73
2022-12-16T05:04:56.505Z,19.67
2022-12-16T05:08:17.531Z,19.00
2022-12-16T05:11:38.683Z,19.47
2022-12-16T05:15:00.771Z,18.40
2022-12-16T05:18:28.090Z,17.40
2022-12-16T05:21:49.252Z,18.07
2022-12-16T05:25:10.203Z,17.87
2022-12-16T05:28:31.387Z,19.60
2022-12-16T05:31:53.478Z,19.03
2022-12-16T05:35:13.430Z,19.53
2022-12-16T05:38:34.686Z,19.30
2022-12-16T05:41:55.778Z,18.03
2022-12-16T05:45:16.857Z,18.83
2022-12-16T05:48:43.117Z,18.73
2022-12-16T05:52:07.033Z,19.93
2022-12-16T05:55:33.727Z,23.73
2022-12-16T05:58:55.598Z,20.47
2022-12-16T06:02:16.650Z,21.30
2022-12-16T06:05:38.980Z,27.37
2022-12-16T06:09:00.102Z,18.37
2022-12-16T06:12:21.216Z,17.97
2022-12-16T06:15:41.617Z,20.40
2022-12-16T06:19:02.870Z,18.53
2022-12-16T06:22:24.984Z,20.97
2022-12-16T06:25:46.150Z,20.03
2022-12-16T06:29:07.434Z,18.93
2022-12-16T06:32:28.641Z,43.23
2022-12-16T06:35:50.121Z,31.47
2022-12-16T06:39:12.950Z,49.43
2022-12-16T06:42:34.020Z,22.67
2022-12-16T06:45:55.338Z,25.70
2022-12-16T06:49:16.277Z,19.80
2022-12-16T06:52:37.104Z,20.03
2022-12-16T06:55:59.751Z,30.83
2022-12-16T06:59:20.866Z,26.00
2022-12-16T07:02:42.051Z,29.93
2022-12-16T07:06:02.121Z,37.27
2022-12-16T07:09:23.382Z,74.67
2022-12-16T07:12:45.986Z,46.47
2022-12-16T07:16:15.542Z,56.97
2022-12-16T07:19:36.497Z,29.97
2022-12-16T07:23:07.802Z,35.67
2022-12-16T07:26:33.066Z,25.57
2022-12-16T07:29:55.459Z,23.03
2022-12-16T07:33:16.417Z,16.87
2022-12-16T07:36:51.968Z,16.37
2022-12-16T07:40:13.194Z,20.80
2022-12-16T07:43:34.625Z,16.67
2022-12-16T07:46:57.323Z,16.00
2022-12-16T07:50:18.174Z,15.80
2022-12-16T07:53:40.044Z,17.57
2022-12-16T07:57:01.181Z,16.23
2022-12-16T08:00:23.701Z,15.60
2022-12-16T08:03:48.055Z,15.57
2022-12-16T08:07:09.146Z,16.70
2022-12-16T08:10:30.137Z,16.23
2022-12-16T08:13:51.095Z,15.63
2022-12-16T08:17:11.992Z,16.43
2022-12-16T08:20:34.993Z,17.20
2022-12-16T08:23:55.690Z,16.60
2022-12-16T08:27:16.781Z,16.70
2022-12-16T08:30:37.937Z,17.17
2022-12-16T08:33:59.040Z,17.30
2022-12-16T08:37:21.745Z,17.33
2022-12-16T08:40:52.336Z,17.30
2022-12-16T08:44:16.250Z,20.20
2022-12-16T08:47:37.306Z,18.53
2022-12-16T08:50:57.315Z,17.77
2022-12-16T08:54:20.076Z,18.53
2022-12-16T08:57:41.061Z,20.07
2022-12-16T09:01:07.009Z,19.23
2022-12-16T09:04:28.920Z,18.00
2022-12-16T09:07:49.884Z,16.67
2022-12-16T09:11:12.530Z,20.50
2022-12-16T09:14:33.534Z,44.27
2022-12-16T09:17:54.602Z,27.13
2022-12-16T09:21:17.326Z,17.77
2022-12-16T09:24:38.539Z,18.67
2022-12-16T09:28:00.773Z,20.37
2022-12-16T09:31:21.655Z,20.33
2022-12-16T09:34:42.710Z,20.03
2022-12-16T09:38:05.965Z,25.53
2022-12-16T09:41:52.413Z,20.30
2022-12-16T09:45:32.808Z,20.80
2022-12-16T09:49:03.919Z,16.73
2022-12-16T09:52:32.736Z,18.13
2022-12-16T09:55:59.252Z,22.27
2022-12-16T09:59:28.291Z,25.60
2022-12-16T10:02:51.552Z,21.23
2022-12-16T10:06:26.036Z,24.40
2022-12-16T10:09:56.510Z,20.23
2022-12-16T10:13:31.224Z,19.77
2022-12-16T10:17:03.790Z,20.43
2022-12-16T10:20:41.760Z,20.73
2022-12-16T10:24:15.714Z,20.13
2022-12-16T10:27:48.521Z,21.80
2022-12-16T10:31:09.878Z,19.73
2022-12-16T10:34:37.198Z,20.13
2022-12-16T10:38:02.231Z,19.97
2022-12-16T10:41:25.363Z,19.83
2022-12-16T10:44:56.606Z,20.17
2022-12-16T10:48:19.236Z,20.27
2022-12-16T10:51:42.426Z,20.63
2022-12-16T10:55:17.520Z,21.03
2022-12-16T10:58:53.779Z,20.97
2022-12-16T11:02:18.979Z,21.40
2022-12-16T11:05:50.455Z,20.57
2022-12-16T11:09:20.268Z,20.27
2022-12-16T11:12:47.119Z,20.63
2022-12-16T11:16:31.815Z,21.07
2022-12-16T11:19:52.720Z,20.53
2022-12-16T11:23:37.912Z,21.77
2022-12-16T11:27:12.141Z,21.30
2022-12-16T11:30:40.618Z,21.10
2022-12-16T11:34:04.284Z,21.87
2022-12-16T11:37:27.566Z,22.40
2022-12-16T11:40:50.496Z,22.60
2022-12-16T11:44:14.764Z,21.10
2022-12-16T11:47:52.575Z,22.13
2022-12-16T11:51:17.028Z,20.20
2022-12-16T11:54:43.726Z,22.23
2022-12-16T11:58:16.628Z,22.60
2022-12-16T12:01:45.672Z,21.77
2022-12-16T12:05:09.752Z,22.63
2022-12-16T12:08:41.598Z,24.00
2022-12-16T12:12:23.883Z,22.03
2022-12-16T12:15:56.440Z,22.10
2022-12-16T12:19:27.371Z,23.07
2022-12-16T12:22:55.914Z,22.73
2022-12-16T12:26:30.534Z,23.07
2022-12-16T12:30:16.069Z,23.30
2022-12-16T12:33:53.276Z,22.50
2022-12-16T12:37:27.598Z,21.97
2022-12-16T12:41:05.074Z,20.80
2022-12-16T12:44:48.923Z,21.37
2022-12-16T12:48:37.141Z,21.03
2022-12-16T12:52:11.129Z,21.33
2022-12-16T12:55:42.428Z,21.50
2022-12-16T12:59:08.656Z,21.90
2022-12-16T13:02:39.617Z,21.37
2022-12-16T13:06:01.609Z,22.47
2022-12-16T13:09:40.798Z,22.80
2022-12-16T13:13:01.998Z,21.93
2022-12-16T13:16:43.495Z,21.67
2022-12-16T13:20:22.300Z,21.67
2022-12-16T13:23:51.525Z,21.70
2022-12-16T13:27:29.411Z,21.10
2022-12-16T13:30:52.619Z,21.70
2022-12-16T13:34:23.988Z,19.93
2022-12-16T13:37:46.857Z,20.00
2022-12-16T13:41:12.923Z,20.00
2022-12-16T13:45:18.177Z,21.93
2022-12-16T13:48:57.976Z,20.40
2022-12-16T13:52:33.415Z,21.27
2022-12-16T13:56:03.271Z,20.33
2022-12-16T13:59:33.614Z,20.20
2022-12-16T14:03:00.923Z,21.60
2022-12-16T14:06:31.114Z,23.83
2022-12-16T14:10:01.010Z,19.60
2022-12-16T14:13:28.815Z,21.60
2022-12-16T14:17:06.119Z,20.97
2022-12-16T14:20:39.869Z,20.93
2022-12-16T14:24:08.196Z,21.23
2022-12-16T14:27:38.958Z,20.93
2022-12-16T14:31:00.900Z,19.70
2022-12-16T14:34:30.901Z,19.67
2022-12-16T14:37:56.210Z,20.47
2022-12-16T14:41:17.307Z,21.27
2022-12-16T14:44:45.504Z,47.70
2022-12-16T14:48:06.533Z,28.50
2022-12-16T14:51:46.708Z,23.70
2022-12-16T14:55:07.758Z,20.50
2022-12-16T14:58:32.064Z,22.07
2022-12-16T15:02:00.410Z,21.53
2022-12-16T15:05:22.145Z,19.67
2022-12-16T15:08:45.382Z,20.50
2022-12-16T15:12:08.390Z,20.93
2022-12-16T15:15:41.669Z,20.63
2022-12-16T15:19:13.611Z,20.10
2022-12-16T15:22:35.957Z,20.37
2022-12-16T15:25:53.467Z,20.43
2022-12-16T15:29:14.576Z,20.10
2022-12-16T15:32:50.465Z,22.20
2022-12-16T15:36:21.581Z,21.43
2022-12-16T15:39:52.646Z,21.80
2022-12-16T15:43:13.995Z,22.07
2022-12-16T15:46:38.923Z,20.70
2022-12-16T15:50:04.739Z,21.57
2022-12-16T15:53:49.290Z,20.30
2022-12-16T15:57:21.843Z,19.10
2022-12-16T16:00:46.480Z,20.77
2022-12-16T16:04:09.893Z,21.10
2022-12-16T16:07:37.444Z,21.80
2022-12-16T16:11:01.850Z,22.47
2022-12-16T16:14:22.617Z,21.57
2022-12-16T16:17:43.581Z,22.90
2022-12-16T16:21:04.801Z,23.30
2022-12-16T16:24:26.437Z,24.07
2022-12-16T16:27:49.146Z,25.37
2022-12-16T16:31:10.372Z,25.70
2022-12-16T16:34:31.916Z,24.73
2022-12-16T16:37:52.777Z,26.27
2022-12-16T16:41:14.289Z,25.87
2022-12-16T16:44:36.306Z,27.20
2022-12-16T16:47:57.467Z,27.57
2022-12-16T16:51:20.677Z,29.77
2022-12-16T16:54:41.496Z,37.00
2022-12-16T16:58:03.145Z,31.17
2022-12-16T17:01:30.658Z,38.27
2022-12-16T17:04:51.709Z,47.50
2022-12-16T17:08:12.851Z,46.73
2022-12-16T17:11:37.977Z,33.97
2022-12-16T17:14:59.033Z,30.83
2022-12-16T17:18:22.584Z,34.20
2022-12-16T17:21:43.925Z,32.13
2022-12-16T17:25:04.997Z,52.00
2022-12-16T17:28:26.760Z,52.33
2022-12-16T17:31:48.276Z,43.20
2022-12-16T17:35:11.255Z,32.17
2022-12-16T17:38:32.827Z,29.57
2022-12-16T17:41:50.515Z,35.50
2022-12-16T17:45:11.461Z,53.03
2022-12-16T17:48:32.513Z,50.20
2022-12-16T17:51:54.892Z,42.83
2022-12-16T17:55:16.275Z,42.23
2022-12-16T17:58:37.318Z,32.97
2022-12-16T18:01:58.596Z,32.13
2022-12-16T18:05:20.009Z,31.87
2022-12-16T18:08:42.601Z,33.80
2022-12-16T18:12:03.595Z,34.33
2022-12-16T18:15:25.344Z,33.27
2022-12-16T18:18:46.522Z,35.80
2022-12-16T18:22:07.432Z,34.73
2022-12-16T18:25:39.231Z,34.20
2022-12-16T18:29:00.042Z,32.70
2022-12-16T18:32:21.106Z,70.43
2022-12-16T18:35:42.064Z,36.90
2022-12-16T18:39:03.100Z,36.57
2022-12-16T18:42:25.793Z,44.40
2022-12-16T18:45:47.133Z,40.57
2022-12-16T18:49:08.069Z,53.23
2022-12-16T18:52:29.826Z,94.33
2022-12-16T18:55:50.929Z,44.57
2022-12-16T18:59:13.668Z,37.63
2022-12-16T19:02:34.625Z,45.17
2022-12-16T19:05:55.422Z,41.40
2022-12-16T19:09:24.926Z,61.33
2022-12-16T19:12:45.933Z,59.87
2022-12-16T19:16:14.716Z,36.87
2022-12-16T19:19:35.874Z,40.00
2022-12-16T19:22:56.828Z,38.03
2022-12-16T19:26:19.158Z,36.57
2022-12-16T19:29:51.720Z,35.43
2022-12-16T19:33:14.561Z,31.63
2022-12-16T19:36:35.579Z,33.23
2022-12-16T19:39:56.858Z,33.10
2022-12-16T19:43:18.059Z,27.90
2022-12-16T19:46:39.342Z,27.53
2022-12-16T19:50:02.003Z,37.70
2022-12-16T19:53:23.159Z,29.13
2022-12-16T19:56:43.638Z,66.80
2022-12-16T20:00:04.577Z,35.53
2022-12-16T20:03:27.246Z,92.00
2022-12-16T20:06:56.038Z,34.30
2022-12-16T20:10:17.620Z,37.97
2022-12-16T20:13:39.046Z,33.20
2022-12-16T20:17:01.192Z,58.33
2022-12-16T20:20:22.819Z,34.63
2022-12-16T20:23:44.303Z,28.70
2022-12-16T20:27:05.409Z,29.60
2022-12-16T20:30:28.674Z,29.43
2022-12-16T20:33:49.973Z,53.10
2022-12-16T20:37:10.959Z,46.40
2022-12-16T20:40:33.844Z,33.90
2022-12-16T20:43:54.948Z,31.40
2022-12-16T20:47:17.752Z,34.40
2022-12-16T20:50:38.898Z,30.77
2022-12-16T20:54:00.967Z,28.87
2022-12-16T20:57:23.311Z,27.23
2022-12-16T21:00:44.348Z,27.47
2022-12-16T21:04:05.467Z,29.43
2022-12-16T21:07:26.875Z,31.30
2022-12-16T21:10:48.460Z,29.70
2022-12-16T21:14:13.088Z,30.30
2022-12-16T21:17:34.161Z,34.00
2022-12-16T21:20:56.150Z,29.90
2022-12-16T21:24:16.977Z,28.63
2022-12-16T21:27:37.950Z,30.03
2022-12-16T21:31:00.509Z,30.23
2022-12-16T21:34:21.806Z,30.67
2022-12-16T21:37:42.934Z,30.23
2022-12-16T21:41:10.170Z,30.90
2022-12-16T21:44:31.307Z,34.97
2022-12-16T21:47:53.601Z,31.13
2022-12-16T21:51:16.802Z,30.60
2022-12-16T21:54:40.327Z,29.10
2022-12-16T21:58:01.848Z,29.73
2022-12-16T22:01:23.618Z,31.53
2022-12-16T22:04:45.910Z,30.80
2022-12-16T22:08:07.248Z,28.53
2022-12-16T22:11:28.893Z,29.30
2022-12-16T22:14:49.881Z,28.33
2022-12-16T22:18:10.762Z,27.60
2022-12-16T22:21:32.921Z,30.23
2022-12-16T22:24:53.983Z,29.57
2022-12-16T22:28:17.572Z,30.37
2022-12-16T22:31:38.682Z,28.70
2022-12-16T22:34:59.880Z,27.77
2022-12-16T22:38:22.533Z,27.30
2022-12-16T22:41:43.649Z,27.80
2022-12-16T22:45:04.940Z,28.53
2022-12-16T22:48:26.223Z,29.47
2022-12-16T22:52:01.660Z,29.23
2022-12-16T22:55:24.051Z,29.13
2022-12-16T22:58:45.162Z,26.23
2022-12-16T23:02:02.820Z,26.53
2022-12-16T23:05:27.837Z,28.20
2022-12-16T23:08:49.682Z,28.20
2022-12-16T23:12:12.629Z,27.10
2022-12-16T23:15:34.421Z,26.57
2022-12-16T23:22:36.158Z,28.20
2022-12-16T23:25:57.544Z,26.63
2022-12-16T23:29:19.834Z,26.60
2022-12-16T23:32:41.127Z,26.13
2022-12-16T23:36:02.793Z,26.00
2022-12-16T23:39:23.781Z,25.57
2022-12-16T23:42:44.773Z,25.63
2022-12-16T23:46:07.165Z,25.77
2022-12-16T23:49:30.535Z,24.53
2022-12-16T23:52:51.454Z,26.10
2022-12-16T23:56:14.282Z,27.03
2022-12-16T23:59:35.493Z,27.70
